createdAt,value
2023-03-17T06:01:25.195Z,4.30
2023-03-17T06:04:28.560Z,4.00
2023-03-17T06:07:44.580Z,3.83
2023-03-17T06:10:51.749Z,4.37
2023-03-17T06:13:55.808Z,4.65
2023-03-17T06:17:00.379Z,4.93
2023-03-17T06:20:04.368Z,5.07
2023-03-17T06:23:08.013Z,5.07
2023-03-17T06:26:12.456Z,5.17
2023-03-17T06:29:24.005Z,4.75
2023-03-17T06:32:31.208Z,5.20
2023-03-17T06:35:35.142Z,5.55
2023-03-17T06:38:39.383Z,4.72
2023-03-17T06:41:43.256Z,3.97
2023-03-17T06:44:46.607Z,3.70
2023-03-17T06:47:51.442Z,4.60
2023-03-17T06:50:56.825Z,5.18
2023-03-17T06:54:03.276Z,3.75
2023-03-17T06:57:07.015Z,4.10
2023-03-17T07:00:14.384Z,4.55
2023-03-17T07:03:22.774Z,3.50
2023-03-17T07:06:31.135Z,3.63
2023-03-17T07:09:36.324Z,3.08
2023-03-17T07:12:39.481Z,3.33
2023-03-17T07:15:42.818Z,3.75
2023-03-17T07:18:48.016Z,3.03
2023-03-17T07:21:51.085Z,3.50
2023-03-17T07:25:33.726Z,3.58
2023-03-17T07:28:47.878Z,3.60
2023-03-17T07:31:51.756Z,3.70
2023-03-17T07:35:00.587Z,3.40
2023-03-17T07:38:04.074Z,3.33
2023-03-17T07:41:10.034Z,3.80
2023-03-17T07:44:13.322Z,3.80
2023-03-17T07:47:16.402Z,3.58
2023-03-17T07:50:29.898Z,4.10
2023-03-17T07:53:39.964Z,3.75
2023-03-17T07:56:44.750Z,3.72
2023-03-17T07:59:47.909Z,3.67
2023-03-17T08:03:06.857Z,4.30
2023-03-17T08:06:14.084Z,4.05
2023-03-17T08:09:17.710Z,3.83
2023-03-17T08:12:22.167Z,3.50
2023-03-17T08:15:32.497Z,3.73
2023-03-17T08:18:36.617Z,2.65
2023-03-17T08:21:42.190Z,2.92
2023-03-17T08:24:45.360Z,3.40
2023-03-17T08:27:54.210Z,2.42
2023-03-17T08:31:11.019Z,2.90
2023-03-17T08:34:16.885Z,3.40
2023-03-17T08:37:22.342Z,2.92
2023-03-17T08:40:25.755Z,2.50
2023-03-17T08:43:29.782Z,2.80
2023-03-17T08:46:35.020Z,2.63
2023-03-17T08:49:38.672Z,2.85
2023-03-17T08:52:43.700Z,2.58
2023-03-17T08:55:46.960Z,3.17
2023-03-17T08:58:52.063Z,2.80
2023-03-17T09:01:55.907Z,1.83
2023-03-17T09:04:59.128Z,1.90
2023-03-17T09:08:08.077Z,2.38
2023-03-17T09:11:14.838Z,2.28
2023-03-17T09:14:18.122Z,1.90
2023-03-17T09:17:21.817Z,2.20
2023-03-17T09:20:27.095Z,1.85
2023-03-17T09:23:32.620Z,2.08
2023-03-17T09:26:36.059Z,2.00
2023-03-17T09:29:39.450Z,1.85
2023-03-17T09:32:42.645Z,2.03
2023-03-17T09:35:45.858Z,1.85
2023-03-17T09:38:55.985Z,2.00
2023-03-17T09:42:16.786Z,1.90
2023-03-17T09:45:30.516Z,1.88
2023-03-17T09:48:46.490Z,2.63
2023-03-17T09:51:51.122Z,2.20
2023-03-17T09:54:57.227Z,2.08
2023-03-17T09:58:05.881Z,2.72
2023-03-17T10:01:12.916Z,1.80
2023-03-17T10:04:19.006Z,1.80
2023-03-17T10:07:28.227Z,2.17
2023-03-17T10:10:40.980Z,1.90
2023-03-17T10:13:56.043Z,2.10
2023-03-17T10:17:04.998Z,1.80
2023-03-17T10:20:14.421Z,2.07
2023-03-17T10:23:21.712Z,2.20
2023-03-17T10:26:32.900Z,2.30
2023-03-17T10:29:36.372Z,1.90
2023-03-17T10:32:41.056Z,1.95
2023-03-17T10:35:45.137Z,1.90
2023-03-17T10:38:54.965Z,2.22
2023-03-17T10:42:01.769Z,2.10
2023-03-17T10:45:15.064Z,2.55
2023-03-17T10:48:20.788Z,2.03
2023-03-17T10:51:30.967Z,2.13
2023-03-17T10:54:35.860Z,1.80
2023-03-17T10:57:47.145Z,2.00
2023-03-17T11:00:57.786Z,1.85
2023-03-17T11:04:03.917Z,1.80
2023-03-17T11:07:15.506Z,1.80
2023-03-17T11:10:25.374Z,2.50
2023-03-17T11:13:34.401Z,2.08
2023-03-17T11:16:49.776Z,1.80
2023-03-17T11:21:00.831Z,2.22
2023-03-17T11:24:16.725Z,1.83
2023-03-17T11:27:31.619Z,1.98
2023-03-17T11:30:39.375Z,1.95
2023-03-17T11:33:57.025Z,2.58
2023-03-17T11:37:07.037Z,2.10
2023-03-17T11:40:25.901Z,4.00
2023-03-17T11:43:37.392Z,1.60
2023-03-17T11:46:56.176Z,1.90
2023-03-17T11:50:19.091Z,2.00
2023-03-17T11:53:51.217Z,2.13
2023-03-17T11:57:00.036Z,1.90
2023-03-17T12:00:22.086Z,1.88
2023-03-17T12:03:50.794Z,1.42
2023-03-17T12:07:10.967Z,1.92
2023-03-17T12:10:37.546Z,1.88
2023-03-17T12:13:46.748Z,1.70
2023-03-17T12:17:00.686Z,1.73
2023-03-17T12:20:16.453Z,1.60
2023-03-17T12:23:30.173Z,1.80
2023-03-17T12:26:40.699Z,1.60
2023-03-17T12:29:51.103Z,1.50
2023-03-17T12:33:20.845Z,1.55
2023-03-17T12:36:38.324Z,1.90
2023-03-17T12:39:50.302Z,1.90
2023-03-17T12:43:10.266Z,1.98
2023-03-17T12:46:39.214Z,2.27
2023-03-17T12:50:11.510Z,2.35
2023-03-17T12:53:27.476Z,1.80
2023-03-17T12:56:32.878Z,2.08
2023-03-17T12:59:37.706Z,2.00
2023-03-17T13:02:41.945Z,2.10
2023-03-17T13:05:48.412Z,2.03
2023-03-17T13:08:54.619Z,1.83
2023-03-17T13:11:58.460Z,1.95
2023-03-17T13:15:02.130Z,2.03
2023-03-17T13:18:54.287Z,2.07
2023-03-17T13:22:35.242Z,2.00
2023-03-17T13:25:53.520Z,2.70
2023-03-17T13:29:03.794Z,2.10
2023-03-17T13:32:33.363Z,1.92
2023-03-17T13:35:43.802Z,2.20
2023-03-17T13:39:18.419Z,1.90
2023-03-17T13:42:53.592Z,2.95
2023-03-17T13:46:31.769Z,2.03
2023-03-17T13:49:36.816Z,1.90
2023-03-17T13:52:44.372Z,2.27
2023-03-17T13:56:20.232Z,2.00
2023-03-17T13:59:55.487Z,1.70
2023-03-17T14:03:07.739Z,1.80
